sensor_id;sensor_type;location;lat;lon;timestamp;temperature;humidity
13464;DHT22;6804;48.774;9.174;2023-06-22T00:00:11;23.60;99.90
13464;DHT22;6804;48.774;9.174;2023-06-22T00:02:43;23.60;99.90
13464;DHT22;6804;48.774;9.174;2023-06-22T00:05:13;23.40;99.90
13464;DHT22;6804;48.774;9.174;2023-06-22T00:07:42;23.30;99.90
13464;DHT22;6804;48.774;9.174;2023-06-22T00:10:12;23.30;99.90
13464;DHT22;6804;48.774;9.174;2023-06-22T00:12:42;23.30;99.90
13464;DHT22;6804;48.774;9.174;2023-06-22T00:15:12;23.40;99.90
13464;DHT22;6804;48.774;9.174;2023-06-22T00:17:58;23.30;99.90
13464;DHT22;6804;48.774;9.174;2023-06-22T00:20:26;23.30;99.90
13464;DHT22;6804;48.774;9.174;2023-06-22T00:23:00;23.30;99.90
13464;DHT22;6804;48.774;9.174;2023-06-22T00:25:32;23.30;99.90
13464;DHT22;6804;48.774;9.174;2023-06-22T00:28:02;23.40;99.90
13464;DHT22;6804;48.774;9.174;2023-06-22T00:30:32;23.40;99.90
13464;DHT22;6804;48.774;9.174;2023-06-22T00:33:04;23.40;99.90
13464;DHT22;6804;48.774;9.174;2023-06-22T00:35:33;23.50;99.90
13464;DHT22;6804;48.774;9.174;2023-06-22T00:38:04;23.50;99.90
13464;DHT22;6804;48.774;9.174;2023-06-22T00:40:33;23.50;99.90
13464;DHT22;6804;48.774;9.174;2023-06-22T00:43:00;23.50;99.90
13464;DHT22;6804;48.774;9.174;2023-06-22T00:45:28;23.40;99.90
13464;DHT22;6804;48.774;9.174;2023-06-22T00:47:57;23.40;99.90
13464;DHT22;6804;48.774;9.174;2023-06-22T00:50:26;23.40;99.90
13464;DHT22;6804;48.774;9.174;2023-06-22T00:52:56;23.50;99.90
13464;DHT22;6804;48.774;9.174;2023-06-22T00:55:26;23.60;99.90
13464;DHT22;6804;48.774;9.174;2023-06-22T00:57:54;23.60;99.90
13464;DHT22;6804;48.774;9.174;2023-06-22T01:00:24;23.60;99.90
13464;DHT22;6804;48.774;9.174;2023-06-22T01:02:52;23.60;99.90
13464;DHT22;6804;48.774;9.174;2023-06-22T01:05:23;23.70;99.90
13464;DHT22;6804;48.774;9.174;2023-06-22T01:08:06;23.70;99.90
13464;DHT22;6804;48.774;9.174;2023-06-22T01:10:41;23.60;99.90
13464;DHT22;6804;48.774;9.174;2023-06-22T01:13:18;23.50;99.90
13464;DHT22;6804;48.774;9.174;2023-06-22T01:15:55;23.50;99.90
13464;DHT22;6804;48.774;9.174;2023-06-22T01:18:24;23.50;99.90
13464;DHT22;6804;48.774;9.174;2023-06-22T01:20:54;23.40;99.90
13464;DHT22;6804;48.774;9.174;2023-06-22T01:23:33;23.30;99.90
13464;DHT22;6804;48.774;9.174;2023-06-22T01:26:12;23.20;99.90
13464;DHT22;6804;48.774;9.174;2023-06-22T01:28:46;23.30;99.90
13464;DHT22;6804;48.774;9.174;2023-06-22T01:31:16;23.30;99.90
13464;DHT22;6804;48.774;9.174;2023-06-22T01:33:46;23.20;99.90
13464;DHT22;6804;48.774;9.174;2023-06-22T01:36:15;23.20;99.90
13464;DHT22;6804;48.774;9.174;2023-06-22T01:38:47;23.20;99.90
13464;DHT22;6804;48.774;9.174;2023-06-22T01:41:15;23.30;99.90
13464;DHT22;6804;48.774;9.174;2023-06-22T01:43:47;23.20;99.90
13464;DHT22;6804;48.774;9.174;2023-06-22T01:46:15;23.10;99.90
13464;DHT22;6804;48.774;9.174;2023-06-22T01:48:45;23.00;99.90
13464;DHT22;6804;48.774;9.174;2023-06-22T01:51:13;22.90;99.90
13464;DHT22;6804;48.774;9.174;2023-06-22T01:53:43;22.90;99.90
13464;DHT22;6804;48.774;9.174;2023-06-22T01:56:11;22.80;99.90
13464;DHT22;6804;48.774;9.174;2023-06-22T01:58:45;22.80;99.90
13464;DHT22;6804;48.774;9.174;2023-06-22T02:01:20;22.90;99.90
13464;DHT22;6804;48.774;9.174;2023-06-22T02:03:55;22.90;99.90
13464;DHT22;6804;48.774;9.174;2023-06-22T02:06:29;22.70;99.90
13464;DHT22;6804;48.774;9.174;2023-06-22T02:09:07;22.60;99.90
13464;DHT22;6804;48.774;9.174;2023-06-22T02:11:36;22.70;99.90
13464;DHT22;6804;48.774;9.174;2023-06-22T02:14:05;22.70;99.90
13464;DHT22;6804;48.774;9.174;2023-06-22T02:16:37;22.60;99.90
13464;DHT22;6804;48.774;9.174;2023-06-22T02:19:04;22.60;99.90
13464;DHT22;6804;48.774;9.174;2023-06-22T02:21:37;22.50;99.90
13464;DHT22;6804;48.774;9.174;2023-06-22T02:24:04;22.50;99.90
13464;DHT22;6804;48.774;9.174;2023-06-22T02:26:31;22.50;99.90
13464;DHT22;6804;48.774;9.174;2023-06-22T02:29:00;22.50;99.90
13464;DHT22;6804;48.774;9.174;2023-06-22T02:31:27;22.60;99.90
13464;DHT22;6804;48.774;9.174;2023-06-22T02:33:57;22.70;99.90
13464;DHT22;6804;48.774;9.174;2023-06-22T02:36:26;22.80;99.90
13464;DHT22;6804;48.774;9.174;2023-06-22T02:38:56;22.80;99.90
13464;DHT22;6804;48.774;9.174;2023-06-22T02:41:26;22.80;99.90
13464;DHT22;6804;48.774;9.174;2023-06-22T02:43:56;22.80;99.90
13464;DHT22;6804;48.774;9.174;2023-06-22T02:46:32;22.60;99.90
13464;DHT22;6804;48.774;9.174;2023-06-22T02:49:03;22.50;99.90
13464;DHT22;6804;48.774;9.174;2023-06-22T02:51:33;22.40;99.90
13464;DHT22;6804;48.774;9.174;2023-06-22T02:54:01;22.40;99.90
13464;DHT22;6804;48.774;9.174;2023-06-22T02:56:28;22.40;99.90
13464;DHT22;6804;48.774;9.174;2023-06-22T02:58:56;22.40;99.90
13464;DHT22;6804;48.774;9.174;2023-06-22T03:01:26;22.40;99.90
13464;DHT22;6804;48.774;9.174;2023-06-22T03:03:56;22.40;99.90
13464;DHT22;6804;48.774;9.174;2023-06-22T03:06:25;22.30;99.90
13464;DHT22;6804;48.774;9.174;2023-06-22T03:09:00;22.30;99.90
13464;DHT22;6804;48.774;9.174;2023-06-22T03:11:29;22.40;99.90
13464;DHT22;6804;48.774;9.174;2023-06-22T03:13:56;22.30;99.90
13464;DHT22;6804;48.774;9.174;2023-06-22T03:16:27;22.40;99.90
13464;DHT22;6804;48.774;9.174;2023-06-22T03:18:55;22.50;99.90
13464;DHT22;6804;48.774;9.174;2023-06-22T03:21:28;22.50;99.90
13464;DHT22;6804;48.774;9.174;2023-06-22T03:23:55;22.50;99.90
13464;DHT22;6804;48.774;9.174;2023-06-22T03:26:23;22.50;99.90
13464;DHT22;6804;48.774;9.174;2023-06-22T03:28:58;22.50;99.90
13464;DHT22;6804;48.774;9.174;2023-06-22T03:31:28;22.60;99.90
13464;DHT22;6804;48.774;9.174;2023-06-22T03:33:58;22.60;99.90
13464;DHT22;6804;48.774;9.174;2023-06-22T03:36:27;22.60;99.90
13464;DHT22;6804;48.774;9.174;2023-06-22T03:38:57;22.60;99.90
13464;DHT22;6804;48.774;9.174;2023-06-22T03:41:24;22.60;99.90
13464;DHT22;6804;48.774;9.174;2023-06-22T03:43:53;22.60;99.90
13464;DHT22;6804;48.774;9.174;2023-06-22T03:46:25;22.50;99.90
13464;DHT22;6804;48.774;9.174;2023-06-22T03:48:53;22.40;99.90
13464;DHT22;6804;48.774;9.174;2023-06-22T03:51:20;22.50;99.90
13464;DHT22;6804;48.774;9.174;2023-06-22T03:53:48;22.50;99.90
13464;DHT22;6804;48.774;9.174;2023-06-22T03:56:18;22.50;99.90
13464;DHT22;6804;48.774;9.174;2023-06-22T03:58:49;22.50;99.90
13464;DHT22;6804;48.774;9.174;2023-06-22T04:01:20;22.30;99.90
13464;DHT22;6804;48.774;9.174;2023-06-22T04:03:50;22.30;99.90
13464;DHT22;6804;48.774;9.174;2023-06-22T04:06:19;22.30;99.90
13464;DHT22;6804;48.774;9.174;2023-06-22T04:08:49;22.20;99.90
13464;DHT22;6804;48.774;9.174;2023-06-22T04:11:19;22.40;99.90
13464;DHT22;6804;48.774;9.174;2023-06-22T04:13:47;22.40;99.90
13464;DHT22;6804;48.774;9.174;2023-06-22T04:16:17;22.40;99.90
13464;DHT22;6804;48.774;9.174;2023-06-22T04:18:44;22.30;99.90
13464;DHT22;6804;48.774;9.174;2023-06-22T04:21:12;22.20;99.90
13464;DHT22;6804;48.774;9.174;2023-06-22T04:23:40;22.10;99.90
13464;DHT22;6804;48.774;9.174;2023-06-22T04:26:09;21.90;99.90
13464;DHT22;6804;48.774;9.174;2023-06-22T04:28:36;21.90;99.90
13464;DHT22;6804;48.774;9.174;2023-06-22T04:31:04;21.90;99.90
13464;DHT22;6804;48.774;9.174;2023-06-22T04:33:31;22.00;99.90
13464;DHT22;6804;48.774;9.174;2023-06-22T04:35:59;22.10;99.90
13464;DHT22;6804;48.774;9.174;2023-06-22T04:38:31;22.30;99.90
13464;DHT22;6804;48.774;9.174;2023-06-22T04:40:59;22.50;99.90
13464;DHT22;6804;48.774;9.174;2023-06-22T04:43:30;22.60;99.90
13464;DHT22;6804;48.774;9.174;2023-06-22T04:46:00;22.70;99.90
13464;DHT22;6804;48.774;9.174;2023-06-22T04:48:29;22.70;99.90
13464;DHT22;6804;48.774;9.174;2023-06-22T04:51:02;22.60;99.90
13464;DHT22;6804;48.774;9.174;2023-06-22T04:53:30;22.50;99.90
13464;DHT22;6804;48.774;9.174;2023-06-22T04:55:58;22.40;99.90
13464;DHT22;6804;48.774;9.174;2023-06-22T04:58:30;22.40;99.90
13464;DHT22;6804;48.774;9.174;2023-06-22T05:01:01;22.40;99.90
13464;DHT22;6804;48.774;9.174;2023-06-22T05:03:30;22.50;99.90
13464;DHT22;6804;48.774;9.174;2023-06-22T05:05:59;22.70;99.90
13464;DHT22;6804;48.774;9.174;2023-06-22T05:08:27;22.90;99.90
13464;DHT22;6804;48.774;9.174;2023-06-22T05:10:56;23.10;99.90
13464;DHT22;6804;48.774;9.174;2023-06-22T05:13:24;23.20;99.90
13464;DHT22;6804;48.774;9.174;2023-06-22T05:15:53;23.10;99.90
13464;DHT22;6804;48.774;9.174;2023-06-22T05:18:28;22.80;99.90
13464;DHT22;6804;48.774;9.174;2023-06-22T05:20:57;22.70;99.90
13464;DHT22;6804;48.774;9.174;2023-06-22T05:23:25;22.80;99.90
13464;DHT22;6804;48.774;9.174;2023-06-22T05:25:57;22.90;99.90
13464;DHT22;6804;48.774;9.174;2023-06-22T05:28:30;23.20;99.90
13464;DHT22;6804;48.774;9.174;2023-06-22T05:30:59;23.20;99.90
13464;DHT22;6804;48.774;9.174;2023-06-22T05:33:26;23.30;99.90
13464;DHT22;6804;48.774;9.174;2023-06-22T05:35:57;23.30;99.90
13464;DHT22;6804;48.774;9.174;2023-06-22T05:38:24;23.40;99.90
13464;DHT22;6804;48.774;9.174;2023-06-22T05:40:52;23.60;99.90
13464;DHT22;6804;48.774;9.174;2023-06-22T05:43:23;23.80;99.90
13464;DHT22;6804;48.774;9.174;2023-06-22T05:45:51;24.00;99.90
13464;DHT22;6804;48.774;9.174;2023-06-22T05:48:40;24.20;99.90
13464;DHT22;6804;48.774;9.174;2023-06-22T05:51:08;24.20;99.90
13464;DHT22;6804;48.774;9.174;2023-06-22T05:53:36;24.40;99.90
13464;DHT22;6804;48.774;9.174;2023-06-22T05:56:03;24.50;99.90
13464;DHT22;6804;48.774;9.174;2023-06-22T05:58:31;24.70;99.90
13464;DHT22;6804;48.774;9.174;2023-06-22T06:01:02;24.90;99.90
13464;DHT22;6804;48.774;9.174;2023-06-22T06:03:29;25.00;99.90
13464;DHT22;6804;48.774;9.174;2023-06-22T06:05:59;25.00;99.90
13464;DHT22;6804;48.774;9.174;2023-06-22T06:08:28;24.90;99.90
13464;DHT22;6804;48.774;9.174;2023-06-22T06:10:56;24.80;99.90
13464;DHT22;6804;48.774;9.174;2023-06-22T06:13:23;24.80;99.90
13464;DHT22;6804;48.774;9.174;2023-06-22T06:15:51;24.70;99.90
13464;DHT22;6804;48.774;9.174;2023-06-22T06:18:23;24.70;99.90
13464;DHT22;6804;48.774;9.174;2023-06-22T06:20:51;24.60;99.90
13464;DHT22;6804;48.774;9.174;2023-06-22T06:23:22;24.70;99.90
13464;DHT22;6804;48.774;9.174;2023-06-22T06:25:53;24.70;99.90
13464;DHT22;6804;48.774;9.174;2023-06-22T06:28:25;24.50;99.90
13464;DHT22;6804;48.774;9.174;2023-06-22T06:30:52;24.40;99.90
13464;DHT22;6804;48.774;9.174;2023-06-22T06:33:23;24.40;99.90
13464;DHT22;6804;48.774;9.174;2023-06-22T06:35:55;24.40;99.90
13464;DHT22;6804;48.774;9.174;2023-06-22T06:38:24;24.50;99.90
13464;DHT22;6804;48.774;9.174;2023-06-22T06:40:55;24.70;99.90
13464;DHT22;6804;48.774;9.174;2023-06-22T06:43:23;25.00;99.90
13464;DHT22;6804;48.774;9.174;2023-06-22T06:45:51;25.20;99.90
13464;DHT22;6804;48.774;9.174;2023-06-22T06:48:21;25.40;99.90
13464;DHT22;6804;48.774;9.174;2023-06-22T06:50:49;25.70;99.90
13464;DHT22;6804;48.774;9.174;2023-06-22T06:53:18;25.60;99.90
13464;DHT22;6804;48.774;9.174;2023-06-22T06:55:48;25.80;99.90
13464;DHT22;6804;48.774;9.174;2023-06-22T06:58:16;26.00;99.90
13464;DHT22;6804;48.774;9.174;2023-06-22T07:00:43;26.30;99.90
13464;DHT22;6804;48.774;9.174;2023-06-22T07:03:14;26.50;99.90
13464;DHT22;6804;48.774;9.174;2023-06-22T07:05:42;26.50;99.90
13464;DHT22;6804;48.774;9.174;2023-06-22T07:08:11;26.60;99.90
13464;DHT22;6804;48.774;9.174;2023-06-22T07:10:38;26.70;99.90
13464;DHT22;6804;48.774;9.174;2023-06-22T07:13:12;26.80;99.90
13464;DHT22;6804;48.774;9.174;2023-06-22T07:15:46;26.70;99.90
13464;DHT22;6804;48.774;9.174;2023-06-22T07:18:16;26.40;99.90
13464;DHT22;6804;48.774;9.174;2023-06-22T07:20:44;26.40;99.90
13464;DHT22;6804;48.774;9.174;2023-06-22T07:23:14;26.50;99.90
13464;DHT22;6804;48.774;9.174;2023-06-22T07:25:42;26.50;99.90
13464;DHT22;6804;48.774;9.174;2023-06-22T07:28:15;26.70;99.90
13464;DHT22;6804;48.774;9.174;2023-06-22T07:30:43;26.90;99.90
13464;DHT22;6804;48.774;9.174;2023-06-22T07:33:14;27.20;99.90
13464;DHT22;6804;48.774;9.174;2023-06-22T07:35:44;27.40;99.90
13464;DHT22;6804;48.774;9.174;2023-06-22T07:38:14;27.50;99.90
13464;DHT22;6804;48.774;9.174;2023-06-22T07:40:42;27.70;99.90
13464;DHT22;6804;48.774;9.174;2023-06-22T07:43:10;27.70;99.90
13464;DHT22;6804;48.774;9.174;2023-06-22T07:45:39;27.60;99.90
13464;DHT22;6804;48.774;9.174;2023-06-22T07:48:09;27.60;99.90
13464;DHT22;6804;48.774;9.174;2023-06-22T07:50:36;27.70;99.90
13464;DHT22;6804;48.774;9.174;2023-06-22T07:53:04;27.70;99.90
13464;DHT22;6804;48.774;9.174;2023-06-22T07:55:32;27.70;99.90
13464;DHT22;6804;48.774;9.174;2023-06-22T07:58:01;27.80;99.90
13464;DHT22;6804;48.774;9.174;2023-06-22T08:00:34;27.90;99.90
13464;DHT22;6804;48.774;9.174;2023-06-22T08:03:05;28.00;99.90
13464;DHT22;6804;48.774;9.174;2023-06-22T08:05:34;28.20;99.90
13464;DHT22;6804;48.774;9.174;2023-06-22T08:08:05;28.30;99.90
13464;DHT22;6804;48.774;9.174;2023-06-22T08:10:36;28.50;99.90
13464;DHT22;6804;48.774;9.174;2023-06-22T08:13:05;28.70;99.90
13464;DHT22;6804;48.774;9.174;2023-06-22T08:15:36;28.70;99.90
13464;DHT22;6804;48.774;9.174;2023-06-22T08:18:06;28.90;99.90
13464;DHT22;6804;48.774;9.174;2023-06-22T08:20:34;29.00;99.90
13464;DHT22;6804;48.774;9.174;2023-06-22T08:23:06;29.10;99.90
13464;DHT22;6804;48.774;9.174;2023-06-22T08:25:35;29.10;99.90
13464;DHT22;6804;48.774;9.174;2023-06-22T08:28:13;28.90;99.90
13464;DHT22;6804;48.774;9.174;2023-06-22T08:30:41;28.80;99.90
13464;DHT22;6804;48.774;9.174;2023-06-22T08:33:10;28.80;99.90
13464;DHT22;6804;48.774;9.174;2023-06-22T08:35:38;28.80;99.90
13464;DHT22;6804;48.774;9.174;2023-06-22T08:38:09;28.90;99.90
13464;DHT22;6804;48.774;9.174;2023-06-22T08:40:41;29.00;99.90
13464;DHT22;6804;48.774;9.174;2023-06-22T08:43:10;29.10;99.90
13464;DHT22;6804;48.774;9.174;2023-06-22T08:45:38;29.00;99.90
13464;DHT22;6804;48.774;9.174;2023-06-22T08:48:06;28.90;99.90
13464;DHT22;6804;48.774;9.174;2023-06-22T08:50:36;29.00;99.90
13464;DHT22;6804;48.774;9.174;2023-06-22T08:53:04;29.00;99.90
13464;DHT22;6804;48.774;9.174;2023-06-22T08:55:37;29.10;99.90
13464;DHT22;6804;48.774;9.174;2023-06-22T08:58:05;29.10;99.90
13464;DHT22;6804;48.774;9.174;2023-06-22T09:00:33;29.20;99.90
13464;DHT22;6804;48.774;9.174;2023-06-22T09:03:06;29.40;99.90
13464;DHT22;6804;48.774;9.174;2023-06-22T09:05:38;29.50;99.90
13464;DHT22;6804;48.774;9.174;2023-06-22T09:08:11;29.70;99.90
13464;DHT22;6804;48.774;9.174;2023-06-22T09:10:39;29.50;99.90
13464;DHT22;6804;48.774;9.174;2023-06-22T09:13:07;29.40;99.90
13464;DHT22;6804;48.774;9.174;2023-06-22T09:15:40;29.00;99.90
13464;DHT22;6804;48.774;9.174;2023-06-22T09:18:10;28.90;99.90
13464;DHT22;6804;48.774;9.174;2023-06-22T09:20:41;28.90;99.90
13464;DHT22;6804;48.774;9.174;2023-06-22T09:23:12;29.10;99.90
13464;DHT22;6804;48.774;9.174;2023-06-22T09:25:44;29.40;99.90
13464;DHT22;6804;48.774;9.174;2023-06-22T09:28:18;29.70;99.90
13464;DHT22;6804;48.774;9.174;2023-06-22T09:30:52;29.90;99.90
13464;DHT22;6804;48.774;9.174;2023-06-22T09:33:25;30.00;99.90
13464;DHT22;6804;48.774;9.174;2023-06-22T09:36:04;29.80;99.90
13464;DHT22;6804;48.774;9.174;2023-06-22T09:38:36;29.80;99.90
13464;DHT22;6804;48.774;9.174;2023-06-22T09:41:07;29.50;99.90
13464;DHT22;6804;48.774;9.174;2023-06-22T09:43:38;29.40;99.90
13464;DHT22;6804;48.774;9.174;2023-06-22T09:46:08;29.40;99.90
13464;DHT22;6804;48.774;9.174;2023-06-22T09:48:42;29.60;99.90
13464;DHT22;6804;48.774;9.174;2023-06-22T09:51:19;29.80;99.90
13464;DHT22;6804;48.774;9.174;2023-06-22T09:53:52;29.80;99.90
13464;DHT22;6804;48.774;9.174;2023-06-22T09:56:26;29.90;99.90
13464;DHT22;6804;48.774;9.174;2023-06-22T09:58:58;29.90;99.90
13464;DHT22;6804;48.774;9.174;2023-06-22T10:01:32;29.70;99.90
13464;DHT22;6804;48.774;9.174;2023-06-22T10:04:04;29.60;99.90
13464;DHT22;6804;48.774;9.174;2023-06-22T10:06:35;29.70;99.90
13464;DHT22;6804;48.774;9.174;2023-06-22T10:09:07;29.80;99.90
13464;DHT22;6804;48.774;9.174;2023-06-22T10:11:38;30.00;99.90
13464;DHT22;6804;48.774;9.174;2023-06-22T10:14:06;30.30;99.90
13464;DHT22;6804;48.774;9.174;2023-06-22T10:16:45;30.30;99.90
13464;DHT22;6804;48.774;9.174;2023-06-22T10:19:13;30.10;99.90
13464;DHT22;6804;48.774;9.174;2023-06-22T10:22:02;30.10;99.90
13464;DHT22;6804;48.774;9.174;2023-06-22T10:24:33;30.20;99.90
13464;DHT22;6804;48.774;9.174;2023-06-22T10:27:03;30.40;99.90
13464;DHT22;6804;48.774;9.174;2023-06-22T10:29:32;30.50;99.30
13464;DHT22;6804;48.774;9.174;2023-06-22T10:32:00;30.70;99.30
13464;DHT22;6804;48.774;9.174;2023-06-22T10:34:31;30.70;98.80
13464;DHT22;6804;48.774;9.174;2023-06-22T10:37:03;30.50;98.80
13464;DHT22;6804;48.774;9.174;2023-06-22T10:39:32;30.40;99.00
13464;DHT22;6804;48.774;9.174;2023-06-22T10:42:02;30.40;98.90
13464;DHT22;6804;48.774;9.174;2023-06-22T10:44:30;30.50;98.90
13464;DHT22;6804;48.774;9.174;2023-06-22T10:47:01;30.30;99.20
13464;DHT22;6804;48.774;9.174;2023-06-22T10:49:35;30.30;99.00
13464;DHT22;6804;48.774;9.174;2023-06-22T10:52:11;30.30;99.00
13464;DHT22;6804;48.774;9.174;2023-06-22T10:54:41;30.30;98.90
13464;DHT22;6804;48.774;9.174;2023-06-22T10:57:10;30.10;98.60
13464;DHT22;6804;48.774;9.174;2023-06-22T10:59:41;29.90;98.90
13464;DHT22;6804;48.774;9.174;2023-06-22T11:02:11;30.10;99.30
13464;DHT22;6804;48.774;9.174;2023-06-22T11:04:40;30.20;99.00
13464;DHT22;6804;48.774;9.174;2023-06-22T11:07:15;30.40;98.70
13464;DHT22;6804;48.774;9.174;2023-06-22T11:09:43;30.40;99.00
13464;DHT22;6804;48.774;9.174;2023-06-22T11:12:12;30.40;99.30
13464;DHT22;6804;48.774;9.174;2023-06-22T11:14:41;30.30;99.60
13464;DHT22;6804;48.774;9.174;2023-06-22T11:17:09;30.40;99.60
13464;DHT22;6804;48.774;9.174;2023-06-22T11:19:37;30.40;99.60
13464;DHT22;6804;48.774;9.174;2023-06-22T11:22:05;30.60;99.20
13464;DHT22;6804;48.774;9.174;2023-06-22T11:24:35;30.60;99.20
13464;DHT22;6804;48.774;9.174;2023-06-22T11:27:03;30.50;99.00
13464;DHT22;6804;48.774;9.174;2023-06-22T11:29:31;30.60;99.20
13464;DHT22;6804;48.774;9.174;2023-06-22T11:32:02;30.60;99.20
13464;DHT22;6804;48.774;9.174;2023-06-22T11:34:36;30.70;98.60
13464;DHT22;6804;48.774;9.174;2023-06-22T11:37:04;30.70;98.30
13464;DHT22;6804;48.774;9.174;2023-06-22T11:39:33;30.70;98.70
13464;DHT22;6804;48.774;9.174;2023-06-22T11:42:05;30.80;98.80
13464;DHT22;6804;48.774;9.174;2023-06-22T11:44:33;31.00;98.60
13464;DHT22;6804;48.774;9.174;2023-06-22T11:47:05;30.90;98.50
13464;DHT22;6804;48.774;9.174;2023-06-22T11:49:36;30.70;99.20
13464;DHT22;6804;48.774;9.174;2023-06-22T11:52:05;30.70;99.10
13464;DHT22;6804;48.774;9.174;2023-06-22T11:54:35;30.60;99.40
13464;DHT22;6804;48.774;9.174;2023-06-22T11:57:04;30.50;99.60
13464;DHT22;6804;48.774;9.174;2023-06-22T11:59:33;30.40;99.90
13464;DHT22;6804;48.774;9.174;2023-06-22T12:02:00;30.60;99.90
13464;DHT22;6804;48.774;9.174;2023-06-22T12:04:33;30.60;99.70
13464;DHT22;6804;48.774;9.174;2023-06-22T12:07:01;30.60;99.50
13464;DHT22;6804;48.774;9.174;2023-06-22T12:09:36;30.40;99.20
13464;DHT22;6804;48.774;9.174;2023-06-22T12:12:04;30.50;99.20
13464;DHT22;6804;48.774;9.174;2023-06-22T12:14:32;30.40;98.60
13464;DHT22;6804;48.774;9.174;2023-06-22T12:17:00;30.30;98.70
13464;DHT22;6804;48.774;9.174;2023-06-22T12:19:28;30.40;99.30
13464;DHT22;6804;48.774;9.174;2023-06-22T12:21:56;30.60;99.40
13464;DHT22;6804;48.774;9.174;2023-06-22T12:24:25;30.70;99.10
13464;DHT22;6804;48.774;9.174;2023-06-22T12:26:55;30.70;98.80
13464;DHT22;6804;48.774;9.174;2023-06-22T12:29:27;30.90;98.60
13464;DHT22;6804;48.774;9.174;2023-06-22T12:31:55;31.00;98.40
13464;DHT22;6804;48.774;9.174;2023-06-22T12:34:23;31.10;98.20
13464;DHT22;6804;48.774;9.174;2023-06-22T12:36:54;31.20;98.00
13464;DHT22;6804;48.774;9.174;2023-06-22T12:39:23;31.20;98.00
13464;DHT22;6804;48.774;9.174;2023-06-22T12:41:54;31.20;98.30
13464;DHT22;6804;48.774;9.174;2023-06-22T12:44:22;31.10;98.20
13464;DHT22;6804;48.774;9.174;2023-06-22T12:46:53;31.10;98.30
13464;DHT22;6804;48.774;9.174;2023-06-22T12:49:21;31.10;98.30
13464;DHT22;6804;48.774;9.174;2023-06-22T12:51:55;31.10;98.30
13464;DHT22;6804;48.774;9.174;2023-06-22T12:54:23;31.10;98.10
13464;DHT22;6804;48.774;9.174;2023-06-22T12:56:56;31.10;98.10
13464;DHT22;6804;48.774;9.174;2023-06-22T12:59:25;31.10;98.20
13464;DHT22;6804;48.774;9.174;2023-06-22T13:01:55;31.10;98.30
13464;DHT22;6804;48.774;9.174;2023-06-22T13:04:24;31.10;98.40
13464;DHT22;6804;48.774;9.174;2023-06-22T13:06:53;31.00;98.50
13464;DHT22;6804;48.774;9.174;2023-06-22T13:09:23;31.00;98.40
13464;DHT22;6804;48.774;9.174;2023-06-22T13:11:53;31.10;98.50
13464;DHT22;6804;48.774;9.174;2023-06-22T13:14:24;31.10;98.40
13464;DHT22;6804;48.774;9.174;2023-06-22T13:16:55;31.10;98.40
13464;DHT22;6804;48.774;9.174;2023-06-22T13:19:25;31.10;98.50
13464;DHT22;6804;48.774;9.174;2023-06-22T13:21:58;31.10;98.60
13464;DHT22;6804;48.774;9.174;2023-06-22T13:24:29;31.10;98.60
13464;DHT22;6804;48.774;9.174;2023-06-22T13:26:58;31.10;98.60
13464;DHT22;6804;48.774;9.174;2023-06-22T13:29:29;31.20;98.80
13464;DHT22;6804;48.774;9.174;2023-06-22T13:31:57;31.20;98.60
13464;DHT22;6804;48.774;9.174;2023-06-22T13:34:25;31.20;98.40
13464;DHT22;6804;48.774;9.174;2023-06-22T13:36:55;31.30;98.00
13464;DHT22;6804;48.774;9.174;2023-06-22T13:39:25;31.30;98.30
13464;DHT22;6804;48.774;9.174;2023-06-22T13:41:53;31.40;98.30
13464;DHT22;6804;48.774;9.174;2023-06-22T13:44:24;31.40;98.00
13464;DHT22;6804;48.774;9.174;2023-06-22T13:46:57;31.40;97.80
13464;DHT22;6804;48.774;9.174;2023-06-22T13:49:25;31.40;97.90
13464;DHT22;6804;48.774;9.174;2023-06-22T13:51:56;31.40;97.90
13464;DHT22;6804;48.774;9.174;2023-06-22T13:54:26;31.50;98.00
13464;DHT22;6804;48.774;9.174;2023-06-22T13:56:55;31.40;98.00
13464;DHT22;6804;48.774;9.174;2023-06-22T13:59:27;31.50;97.90
13464;DHT22;6804;48.774;9.174;2023-06-22T14:01:57;31.50;97.80
13464;DHT22;6804;48.774;9.174;2023-06-22T14:04:26;31.50;97.60
13464;DHT22;6804;48.774;9.174;2023-06-22T14:07:13;31.50;97.60
13464;DHT22;6804;48.774;9.174;2023-06-22T14:09:41;31.50;97.20
13464;DHT22;6804;48.774;9.174;2023-06-22T14:12:11;31.60;96.90
13464;DHT22;6804;48.774;9.174;2023-06-22T14:14:39;31.70;96.80
13464;DHT22;6804;48.774;9.174;2023-06-22T14:17:10;31.80;96.50
13464;DHT22;6804;48.774;9.174;2023-06-22T14:19:38;32.00;96.10
13464;DHT22;6804;48.774;9.174;2023-06-22T14:22:06;32.10;95.60
13464;DHT22;6804;48.774;9.174;2023-06-22T14:24:35;32.20;95.00
13464;DHT22;6804;48.774;9.174;2023-06-22T14:27:06;32.40;94.50
13464;DHT22;6804;48.774;9.174;2023-06-22T14:29:37;32.40;94.20
13464;DHT22;6804;48.774;9.174;2023-06-22T14:32:06;32.50;94.20
13464;DHT22;6804;48.774;9.174;2023-06-22T14:34:37;32.50;94.00
13464;DHT22;6804;48.774;9.174;2023-06-22T14:37:07;32.50;93.20
13464;DHT22;6804;48.774;9.174;2023-06-22T14:39:36;32.50;92.30
13464;DHT22;6804;48.774;9.174;2023-06-22T14:42:07;32.50;91.40
13464;DHT22;6804;48.774;9.174;2023-06-22T14:44:41;32.50;91.00
13464;DHT22;6804;48.774;9.174;2023-06-22T14:47:09;32.60;90.70
13464;DHT22;6804;48.774;9.174;2023-06-22T14:49:39;32.80;90.40
13464;DHT22;6804;48.774;9.174;2023-06-22T14:52:07;32.90;88.20
13464;DHT22;6804;48.774;9.174;2023-06-22T14:54:36;32.90;88.30
13464;DHT22;6804;48.774;9.174;2023-06-22T14:57:06;32.90;88.60
13464;DHT22;6804;48.774;9.174;2023-06-22T14:59:37;32.90;88.40
13464;DHT22;6804;48.774;9.174;2023-06-22T15:02:13;33.00;85.10
13464;DHT22;6804;48.774;9.174;2023-06-22T15:04:43;33.00;81.70
13464;DHT22;6804;48.774;9.174;2023-06-22T15:07:11;33.00;78.70
13464;DHT22;6804;48.774;9.174;2023-06-22T15:09:39;33.00;79.00
13464;DHT22;6804;48.774;9.174;2023-06-22T15:12:09;33.00;78.10
13464;DHT22;6804;48.774;9.174;2023-06-22T15:14:41;32.90;76.50
13464;DHT22;6804;48.774;9.174;2023-06-22T15:17:09;32.80;75.90
13464;DHT22;6804;48.774;9.174;2023-06-22T15:19:42;32.80;76.00
13464;DHT22;6804;48.774;9.174;2023-06-22T15:22:10;32.90;75.80
13464;DHT22;6804;48.774;9.174;2023-06-22T15:24:39;32.90;74.20
13464;DHT22;6804;48.774;9.174;2023-06-22T15:27:09;33.00;73.90
13464;DHT22;6804;48.774;9.174;2023-06-22T15:29:57;33.10;73.80
13464;DHT22;6804;48.774;9.174;2023-06-22T15:32:30;33.10;72.50
13464;DHT22;6804;48.774;9.174;2023-06-22T15:35:02;33.00;72.80
13464;DHT22;6804;48.774;9.174;2023-06-22T15:37:30;32.90;72.80
13464;DHT22;6804;48.774;9.174;2023-06-22T15:40:01;33.00;72.80
13464;DHT22;6804;48.774;9.174;2023-06-22T15:42:33;32.90;71.50
13464;DHT22;6804;48.774;9.174;2023-06-22T15:45:01;32.90;71.20
13464;DHT22;6804;48.774;9.174;2023-06-22T15:47:29;32.80;71.40
13464;DHT22;6804;48.774;9.174;2023-06-22T15:50:01;32.80;71.00
13464;DHT22;6804;48.774;9.174;2023-06-22T15:52:30;32.80;71.10
13464;DHT22;6804;48.774;9.174;2023-06-22T15:55:17;32.70;71.30
13464;DHT22;6804;48.774;9.174;2023-06-22T15:57:46;32.70;71.30
13464;DHT22;6804;48.774;9.174;2023-06-22T16:00:18;32.60;71.90
13464;DHT22;6804;48.774;9.174;2023-06-22T16:02:47;32.50;72.40